Paradise Valley, Arizona
Current Conditions -  °F | °C
As of 5:53 PM on Saturday 22 Nov 2014 (Local Time) from KSDL Reporting Station
Clear Clear  
Wind Chill: 63°   Ceiling: Unl
Heat Index: 63°   Visibility: 10mi
Dew Point: 32°   Wind: 3mph
Humidity: 31%   Direction: 120°ESE
Pressure: 29.97"   Gusts: NA
Location:  33.53°N, 111.94°W
Report Text: KSDL 230053Z 12003KT 10SM CLR 17/00 A2997 RMK AO2 SLP139 T01720000
Loading
Personal Weather Stations






























Interactive Weather Map New forecast layout! Learn more

10-Day Weather Forecast

Advertisements
Track Severe Weather on mobile